sensor_id;sensor_type;location;lat;lon;timestamp;P1;durP1;ratioP1;P2;durP2;ratioP2
42018;SDS011;27703;51.980;5.848;2022-09-21T00:00:23;0.10;;;0.00;;
42018;SDS011;27703;51.980;5.848;2022-09-21T00:02:50;1.35;;;0.10;;
42018;SDS011;27703;51.980;5.848;2022-09-21T00:05:19;0.90;;;0.00;;
42018;SDS011;27703;51.980;5.848;2022-09-21T00:07:45;3.05;;;0.00;;
42018;SDS011;27703;51.980;5.848;2022-09-21T00:10:10;2.15;;;0.10;;
42018;SDS011;27703;51.980;5.848;2022-09-21T00:12:36;0.90;;;0.10;;
42018;SDS011;27703;51.980;5.848;2022-09-21T00:15:04;1.65;;;0.10;;
42018;SDS011;27703;51.980;5.848;2022-09-21T00:17:31;0.35;;;0.00;;
42018;SDS011;27703;51.980;5.848;2022-09-21T00:19:57;3.15;;;0.20;;
42018;SDS011;27703;51.980;5.848;2022-09-21T00:22:22;1.38;;;0.10;;
42018;SDS011;27703;51.980;5.848;2022-09-21T00:24:48;1.25;;;0.10;;
42018;SDS011;27703;51.980;5.848;2022-09-21T00:27:13;0.95;;;0.00;;
42018;SDS011;27703;51.980;5.848;2022-09-21T00:29:39;0.80;;;0.00;;
42018;SDS011;27703;51.980;5.848;2022-09-21T00:32:04;2.60;;;0.10;;
42018;SDS011;27703;51.980;5.848;2022-09-21T00:34:30;0.30;;;0.00;;
42018;SDS011;27703;51.980;5.848;2022-09-21T00:36:56;0.50;;;0.30;;
42018;SDS011;27703;51.980;5.848;2022-09-21T00:39:22;3.40;;;0.10;;
42018;SDS011;27703;51.980;5.848;2022-09-21T00:41:47;0.40;;;0.10;;
42018;SDS011;27703;51.980;5.848;2022-09-21T00:46:52;1.33;;;0.00;;
42018;SDS011;27703;51.980;5.848;2022-09-21T00:49:20;1.33;;;0.10;;
42018;SDS011;27703;51.980;5.848;2022-09-21T00:51:47;0.60;;;0.10;;
42018;SDS011;27703;51.980;5.848;2022-09-21T00:54:16;0.93;;;0.10;;
42018;SDS011;27703;51.980;5.848;2022-09-21T00:56:46;1.05;;;0.10;;
42018;SDS011;27703;51.980;5.848;2022-09-21T00:59:12;1.38;;;0.10;;
42018;SDS011;27703;51.980;5.848;2022-09-21T01:01:40;1.75;;;0.10;;
42018;SDS011;27703;51.980;5.848;2022-09-21T01:04:07;3.28;;;0.10;;
42018;SDS011;27703;51.980;5.848;2022-09-21T01:06:33;1.73;;;0.10;;
42018;SDS011;27703;51.980;5.848;2022-09-21T01:09:02;1.10;;;0.10;;
42018;SDS011;27703;51.980;5.848;2022-09-21T01:16:34;0.25;;;0.10;;
42018;SDS011;27703;51.980;5.848;2022-09-21T01:22:03;2.00;;;0.20;;
42018;SDS011;27703;51.980;5.848;2022-09-21T01:29:58;0.55;;;0.10;;
42018;SDS011;27703;51.980;5.848;2022-09-21T01:32:47;1.27;;;0.10;;
42018;SDS011;27703;51.980;5.848;2022-09-21T01:35:36;1.38;;;0.10;;
42018;SDS011;27703;51.980;5.848;2022-09-21T01:38:13;2.53;;;0.10;;
42018;SDS011;27703;51.980;5.848;2022-09-21T01:40:49;0.35;;;0.10;;
42018;SDS011;27703;51.980;5.848;2022-09-21T01:43:21;0.28;;;0.00;;
42018;SDS011;27703;51.980;5.848;2022-09-21T01:45:51;0.95;;;0.10;;
42018;SDS011;27703;51.980;5.848;2022-09-21T01:48:19;0.40;;;0.10;;
42018;SDS011;27703;51.980;5.848;2022-09-21T01:50:48;0.75;;;0.10;;
42018;SDS011;27703;51.980;5.848;2022-09-21T01:53:21;4.40;;;0.10;;
42018;SDS011;27703;51.980;5.848;2022-09-21T01:59:23;1.02;;;0.10;;
42018;SDS011;27703;51.980;5.848;2022-09-21T02:01:34;1.13;;;0.10;;
42018;SDS011;27703;51.980;5.848;2022-09-21T02:04:08;1.65;;;0.10;;
42018;SDS011;27703;51.980;5.848;2022-09-21T02:06:35;0.80;;;0.10;;
42018;SDS011;27703;51.980;5.848;2022-09-21T02:09:04;0.25;;;0.00;;
42018;SDS011;27703;51.980;5.848;2022-09-21T02:11:30;0.35;;;0.05;;
42018;SDS011;27703;51.980;5.848;2022-09-21T02:13:56;2.28;;;0.10;;
42018;SDS011;27703;51.980;5.848;2022-09-21T02:16:29;0.52;;;0.10;;
42018;SDS011;27703;51.980;5.848;2022-09-21T02:24:42;0.55;;;0.10;;
42018;SDS011;27703;51.980;5.848;2022-09-21T02:27:27;0.98;;;0.10;;
42018;SDS011;27703;51.980;5.848;2022-09-21T02:35:37;1.65;;;0.20;;
42018;SDS011;27703;51.980;5.848;2022-09-21T02:38:10;0.60;;;0.10;;
42018;SDS011;27703;51.980;5.848;2022-09-21T02:41:03;1.55;;;0.20;;
42018;SDS011;27703;51.980;5.848;2022-09-21T02:46:23;1.45;;;0.20;;
42018;SDS011;27703;51.980;5.848;2022-09-21T02:48:52;1.50;;;0.10;;
42018;SDS011;27703;51.980;5.848;2022-09-21T02:51:24;1.38;;;0.10;;
42018;SDS011;27703;51.980;5.848;2022-09-21T02:53:55;0.50;;;0.00;;
42018;SDS011;27703;51.980;5.848;2022-09-21T02:56:22;4.95;;;0.15;;
42018;SDS011;27703;51.980;5.848;2022-09-21T02:58:49;0.85;;;0.10;;
42018;SDS011;27703;51.980;5.848;2022-09-21T03:01:18;1.25;;;0.10;;
42018;SDS011;27703;51.980;5.848;2022-09-21T03:03:45;1.13;;;0.03;;
42018;SDS011;27703;51.980;5.848;2022-09-21T03:06:11;0.63;;;0.10;;
42018;SDS011;27703;51.980;5.848;2022-09-21T03:08:37;0.52;;;0.00;;
42018;SDS011;27703;51.980;5.848;2022-09-21T03:11:02;0.73;;;0.00;;
42018;SDS011;27703;51.980;5.848;2022-09-21T03:13:28;0.77;;;0.10;;
42018;SDS011;27703;51.980;5.848;2022-09-21T03:15:58;0.65;;;0.08;;
42018;SDS011;27703;51.980;5.848;2022-09-21T03:18:25;0.40;;;0.05;;
42018;SDS011;27703;51.980;5.848;2022-09-21T03:20:50;1.45;;;0.13;;
42018;SDS011;27703;51.980;5.848;2022-09-21T03:23:16;0.93;;;0.10;;
42018;SDS011;27703;51.980;5.848;2022-09-21T03:25:45;0.28;;;0.05;;
42018;SDS011;27703;51.980;5.848;2022-09-21T03:28:12;1.98;;;0.10;;
42018;SDS011;27703;51.980;5.848;2022-09-21T03:30:38;2.85;;;0.00;;
42018;SDS011;27703;51.980;5.848;2022-09-21T03:33:04;0.43;;;0.00;;
42018;SDS011;27703;51.980;5.848;2022-09-21T03:35:30;2.10;;;0.10;;
42018;SDS011;27703;51.980;5.848;2022-09-21T03:37:59;0.40;;;0.00;;
42018;SDS011;27703;51.980;5.848;2022-09-21T03:40:25;0.30;;;0.10;;
42018;SDS011;27703;51.980;5.848;2022-09-21T03:42:51;2.42;;;0.00;;
42018;SDS011;27703;51.980;5.848;2022-09-21T03:45:18;0.30;;;0.00;;
42018;SDS011;27703;51.980;5.848;2022-09-21T03:47:45;0.47;;;0.00;;
42018;SDS011;27703;51.980;5.848;2022-09-21T03:50:11;1.23;;;0.10;;
42018;SDS011;27703;51.980;5.848;2022-09-21T03:52:37;0.82;;;0.10;;
42018;SDS011;27703;51.980;5.848;2022-09-21T03:55:04;4.38;;;0.30;;
42018;SDS011;27703;51.980;5.848;2022-09-21T03:57:34;0.88;;;0.10;;
42018;SDS011;27703;51.980;5.848;2022-09-21T04:00:01;0.63;;;0.00;;
42018;SDS011;27703;51.980;5.848;2022-09-21T04:02:33;0.70;;;0.00;;
42018;SDS011;27703;51.980;5.848;2022-09-21T04:04:59;2.67;;;0.10;;
42018;SDS011;27703;51.980;5.848;2022-09-21T04:07:24;0.55;;;0.00;;
42018;SDS011;27703;51.980;5.848;2022-09-21T04:09:50;1.70;;;0.10;;
42018;SDS011;27703;51.980;5.848;2022-09-21T04:12:16;0.63;;;0.00;;
42018;SDS011;27703;51.980;5.848;2022-09-21T04:14:45;0.73;;;0.05;;
42018;SDS011;27703;51.980;5.848;2022-09-21T04:17:11;0.77;;;0.00;;
42018;SDS011;27703;51.980;5.848;2022-09-21T04:19:37;0.43;;;0.08;;
42018;SDS011;27703;51.980;5.848;2022-09-21T04:22:02;3.92;;;0.10;;
42018;SDS011;27703;51.980;5.848;2022-09-21T04:24:28;1.17;;;0.45;;
42018;SDS011;27703;51.980;5.848;2022-09-21T04:26:54;0.55;;;0.00;;
42018;SDS011;27703;51.980;5.848;2022-09-21T04:29:20;0.17;;;0.00;;
42018;SDS011;27703;51.980;5.848;2022-09-21T04:31:46;0.95;;;0.10;;
42018;SDS011;27703;51.980;5.848;2022-09-21T04:34:11;1.42;;;0.10;;
42018;SDS011;27703;51.980;5.848;2022-09-21T04:36:38;1.05;;;0.13;;
42018;SDS011;27703;51.980;5.848;2022-09-21T04:39:04;0.85;;;0.00;;
42018;SDS011;27703;51.980;5.848;2022-09-21T04:41:30;0.30;;;0.00;;
42018;SDS011;27703;51.980;5.848;2022-09-21T04:43:55;0.75;;;0.10;;
42018;SDS011;27703;51.980;5.848;2022-09-21T04:46:21;0.28;;;0.00;;
42018;SDS011;27703;51.980;5.848;2022-09-21T04:48:47;1.17;;;0.10;;
42018;SDS011;27703;51.980;5.848;2022-09-21T04:51:14;1.80;;;0.00;;
42018;SDS011;27703;51.980;5.848;2022-09-21T04:53:40;0.85;;;0.10;;
42018;SDS011;27703;51.980;5.848;2022-09-21T04:56:07;0.73;;;0.10;;
42018;SDS011;27703;51.980;5.848;2022-09-21T04:58:33;0.43;;;0.10;;
42018;SDS011;27703;51.980;5.848;2022-09-21T05:01:00;1.17;;;0.10;;
42018;SDS011;27703;51.980;5.848;2022-09-21T05:03:26;0.70;;;0.10;;
42018;SDS011;27703;51.980;5.848;2022-09-21T05:05:53;1.27;;;0.10;;
42018;SDS011;27703;51.980;5.848;2022-09-21T05:08:20;1.10;;;0.20;;
42018;SDS011;27703;51.980;5.848;2022-09-21T05:11:06;0.30;;;0.10;;
42018;SDS011;27703;51.980;5.848;2022-09-21T05:13:32;0.45;;;0.10;;
42018;SDS011;27703;51.980;5.848;2022-09-21T05:15:58;5.55;;;0.10;;
42018;SDS011;27703;51.980;5.848;2022-09-21T05:18:24;2.17;;;0.10;;
42018;SDS011;27703;51.980;5.848;2022-09-21T05:20:53;0.45;;;0.03;;
42018;SDS011;27703;51.980;5.848;2022-09-21T05:23:19;1.48;;;0.00;;
42018;SDS011;27703;51.980;5.848;2022-09-21T05:25:45;0.63;;;0.03;;
42018;SDS011;27703;51.980;5.848;2022-09-21T05:28:11;0.63;;;0.10;;
42018;SDS011;27703;51.980;5.848;2022-09-21T05:30:36;0.65;;;0.00;;
42018;SDS011;27703;51.980;5.848;2022-09-21T05:33:02;0.50;;;0.08;;
42018;SDS011;27703;51.980;5.848;2022-09-21T05:36:31;0.22;;;0.00;;
42018;SDS011;27703;51.980;5.848;2022-09-21T05:38:44;1.83;;;0.10;;
42018;SDS011;27703;51.980;5.848;2022-09-21T05:41:10;1.15;;;0.10;;
42018;SDS011;27703;51.980;5.848;2022-09-21T05:43:36;1.83;;;0.10;;
42018;SDS011;27703;51.980;5.848;2022-09-21T05:46:03;0.63;;;0.20;;
42018;SDS011;27703;51.980;5.848;2022-09-21T05:48:58;0.80;;;0.10;;
42018;SDS011;27703;51.980;5.848;2022-09-21T05:51:28;0.77;;;0.10;;
42018;SDS011;27703;51.980;5.848;2022-09-21T05:54:14;0.40;;;0.10;;
42018;SDS011;27703;51.980;5.848;2022-09-21T05:59:59;2.38;;;0.20;;
42018;SDS011;27703;51.980;5.848;2022-09-21T06:05:25;2.08;;;0.20;;
42018;SDS011;27703;51.980;5.848;2022-09-21T06:07:51;0.52;;;0.20;;
42018;SDS011;27703;51.980;5.848;2022-09-21T06:10:16;0.57;;;0.15;;
42018;SDS011;27703;51.980;5.848;2022-09-21T06:12:42;2.53;;;0.77;;
42018;SDS011;27703;51.980;5.848;2022-09-21T06:15:11;2.13;;;0.20;;
42018;SDS011;27703;51.980;5.848;2022-09-21T06:17:38;0.28;;;0.10;;
42018;SDS011;27703;51.980;5.848;2022-09-21T06:20:04;0.40;;;0.10;;
42018;SDS011;27703;51.980;5.848;2022-09-21T06:22:31;1.33;;;0.20;;
42018;SDS011;27703;51.980;5.848;2022-09-21T06:24:57;1.17;;;0.20;;
42018;SDS011;27703;51.980;5.848;2022-09-21T06:27:22;1.10;;;0.30;;
42018;SDS011;27703;51.980;5.848;2022-09-21T06:29:48;1.50;;;0.30;;
42018;SDS011;27703;51.980;5.848;2022-09-21T06:32:14;0.93;;;0.20;;
42018;SDS011;27703;51.980;5.848;2022-09-21T06:34:39;0.77;;;0.30;;
42018;SDS011;27703;51.980;5.848;2022-09-21T06:37:06;0.73;;;0.20;;
42018;SDS011;27703;51.980;5.848;2022-09-21T06:39:32;1.67;;;0.20;;
42018;SDS011;27703;51.980;5.848;2022-09-21T06:41:58;0.90;;;0.30;;
42018;SDS011;27703;51.980;5.848;2022-09-21T06:44:23;0.50;;;0.20;;
42018;SDS011;27703;51.980;5.848;2022-09-21T06:46:49;1.05;;;0.25;;
42018;SDS011;27703;51.980;5.848;2022-09-21T06:49:15;1.40;;;0.30;;
42018;SDS011;27703;51.980;5.848;2022-09-21T06:51:40;0.98;;;0.25;;
42018;SDS011;27703;51.980;5.848;2022-09-21T06:54:07;1.70;;;0.20;;
42018;SDS011;27703;51.980;5.848;2022-09-21T06:56:33;0.45;;;0.20;;
42018;SDS011;27703;51.980;5.848;2022-09-21T06:58:59;1.38;;;0.20;;
42018;SDS011;27703;51.980;5.848;2022-09-21T07:01:24;1.30;;;0.25;;
42018;SDS011;27703;51.980;5.848;2022-09-21T07:03:50;0.73;;;0.20;;
42018;SDS011;27703;51.980;5.848;2022-09-21T07:06:16;2.38;;;0.20;;
42018;SDS011;27703;51.980;5.848;2022-09-21T07:08:42;0.73;;;0.20;;
42018;SDS011;27703;51.980;5.848;2022-09-21T07:11:10;1.58;;;0.20;;
42018;SDS011;27703;51.980;5.848;2022-09-21T07:13:36;1.13;;;0.20;;
42018;SDS011;27703;51.980;5.848;2022-09-21T07:16:02;1.90;;;0.30;;
42018;SDS011;27703;51.980;5.848;2022-09-21T07:18:31;1.52;;;0.20;;
42018;SDS011;27703;51.980;5.848;2022-09-21T07:21:01;2.85;;;0.30;;
42018;SDS011;27703;51.980;5.848;2022-09-21T07:23:30;2.40;;;0.28;;
42018;SDS011;27703;51.980;5.848;2022-09-21T07:25:59;1.05;;;0.32;;
42018;SDS011;27703;51.980;5.848;2022-09-21T07:28:30;1.42;;;0.60;;
42018;SDS011;27703;51.980;5.848;2022-09-21T07:30:56;1.55;;;0.30;;
42018;SDS011;27703;51.980;5.848;2022-09-21T07:33:23;3.13;;;0.40;;
42018;SDS011;27703;51.980;5.848;2022-09-21T07:35:52;3.13;;;0.38;;
42018;SDS011;27703;51.980;5.848;2022-09-21T07:40:46;2.22;;;0.50;;
42018;SDS011;27703;51.980;5.848;2022-09-21T07:43:12;3.03;;;0.40;;
42018;SDS011;27703;51.980;5.848;2022-09-21T07:45:38;3.42;;;0.35;;
42018;SDS011;27703;51.980;5.848;2022-09-21T07:48:04;1.90;;;0.40;;
42018;SDS011;27703;51.980;5.848;2022-09-21T07:50:30;1.80;;;0.40;;
42018;SDS011;27703;51.980;5.848;2022-09-21T07:52:58;3.33;;;0.57;;
42018;SDS011;27703;51.980;5.848;2022-09-21T07:55:24;3.78;;;0.40;;
42018;SDS011;27703;51.980;5.848;2022-09-21T07:57:50;1.67;;;0.38;;
42018;SDS011;27703;51.980;5.848;2022-09-21T08:00:34;2.70;;;0.30;;
42018;SDS011;27703;51.980;5.848;2022-09-21T08:03:00;2.33;;;0.40;;
42018;SDS011;27703;51.980;5.848;2022-09-21T08:05:26;4.32;;;0.40;;
42018;SDS011;27703;51.980;5.848;2022-09-21T08:07:54;1.05;;;0.35;;
42018;SDS011;27703;51.980;5.848;2022-09-21T08:10:20;3.92;;;0.60;;
42018;SDS011;27703;51.980;5.848;2022-09-21T08:12:46;1.88;;;0.40;;
42018;SDS011;27703;51.980;5.848;2022-09-21T08:15:12;2.35;;;0.40;;
42018;SDS011;27703;51.980;5.848;2022-09-21T08:17:38;0.90;;;0.30;;
42018;SDS011;27703;51.980;5.848;2022-09-21T08:20:04;3.75;;;0.30;;
42018;SDS011;27703;51.980;5.848;2022-09-21T08:22:30;1.58;;;0.30;;
42018;SDS011;27703;51.980;5.848;2022-09-21T08:24:56;1.10;;;0.35;;
42018;SDS011;27703;51.980;5.848;2022-09-21T08:27:22;0.98;;;0.30;;
42018;SDS011;27703;51.980;5.848;2022-09-21T08:29:49;1.10;;;0.20;;
42018;SDS011;27703;51.980;5.848;2022-09-21T08:32:15;1.55;;;0.35;;
42018;SDS011;27703;51.980;5.848;2022-09-21T08:34:41;3.53;;;0.20;;
42018;SDS011;27703;51.980;5.848;2022-09-21T08:37:06;0.85;;;0.30;;
42018;SDS011;27703;51.980;5.848;2022-09-21T08:39:32;1.75;;;0.20;;
42018;SDS011;27703;51.980;5.848;2022-09-21T08:44:36;2.53;;;0.38;;
42018;SDS011;27703;51.980;5.848;2022-09-21T08:49:37;3.13;;;0.40;;
42018;SDS011;27703;51.980;5.848;2022-09-21T08:52:06;2.03;;;0.30;;
42018;SDS011;27703;51.980;5.848;2022-09-21T08:57:12;3.53;;;0.40;;
42018;SDS011;27703;51.980;5.848;2022-09-21T08:59:40;1.27;;;0.38;;
42018;SDS011;27703;51.980;5.848;2022-09-21T09:22:00;2.90;;;0.20;;
42018;SDS011;27703;51.980;5.848;2022-09-21T09:24:39;0.90;;;0.20;;
42018;SDS011;27703;51.980;5.848;2022-09-21T09:27:22;4.20;;;0.30;;
42018;SDS011;27703;51.980;5.848;2022-09-21T09:30:02;1.92;;;0.10;;
42018;SDS011;27703;51.980;5.848;2022-09-21T09:37:46;0.77;;;0.10;;
42018;SDS011;27703;51.980;5.848;2022-09-21T09:40:12;1.33;;;0.20;;
42018;SDS011;27703;51.980;5.848;2022-09-21T09:42:45;1.85;;;0.10;;
42018;SDS011;27703;51.980;5.848;2022-09-21T09:45:23;6.80;;;0.50;;
42018;SDS011;27703;51.980;5.848;2022-09-21T09:48:21;0.90;;;0.10;;
42018;SDS011;27703;51.980;5.848;2022-09-21T09:50:52;2.67;;;0.10;;
42018;SDS011;27703;51.980;5.848;2022-09-21T09:53:19;3.33;;;0.10;;
42018;SDS011;27703;51.980;5.848;2022-09-21T09:55:48;2.08;;;0.05;;
42018;SDS011;27703;51.980;5.848;2022-09-21T09:58:17;2.60;;;0.10;;
42018;SDS011;27703;51.980;5.848;2022-09-21T10:00:44;4.50;;;0.20;;
42018;SDS011;27703;51.980;5.848;2022-09-21T10:03:15;1.83;;;0.13;;
42018;SDS011;27703;51.980;5.848;2022-09-21T10:05:43;2.28;;;0.03;;
42018;SDS011;27703;51.980;5.848;2022-09-21T10:11:06;0.50;;;0.10;;
42018;SDS011;27703;51.980;5.848;2022-09-21T10:13:32;2.10;;;0.10;;
42018;SDS011;27703;51.980;5.848;2022-09-21T10:18:49;3.08;;;0.10;;
42018;SDS011;27703;51.980;5.848;2022-09-21T10:21:17;2.38;;;0.05;;
42018;SDS011;27703;51.980;5.848;2022-09-21T10:23:47;1.48;;;0.10;;
42018;SDS011;27703;51.980;5.848;2022-09-21T10:26:29;1.02;;;0.10;;
42018;SDS011;27703;51.980;5.848;2022-09-21T10:28:59;1.45;;;0.10;;
42018;SDS011;27703;51.980;5.848;2022-09-21T10:34:30;1.58;;;0.03;;
42018;SDS011;27703;51.980;5.848;2022-09-21T10:36:58;1.65;;;0.00;;
42018;SDS011;27703;51.980;5.848;2022-09-21T10:44:38;2.00;;;0.20;;
42018;SDS011;27703;51.980;5.848;2022-09-21T10:47:31;2.05;;;0.10;;
42018;SDS011;27703;51.980;5.848;2022-09-21T10:50:01;0.88;;;0.10;;
42018;SDS011;27703;51.980;5.848;2022-09-21T10:55:58;1.92;;;0.10;;
42018;SDS011;27703;51.980;5.848;2022-09-21T10:58:32;1.83;;;0.10;;
42018;SDS011;27703;51.980;5.848;2022-09-21T11:04:22;4.65;;;0.10;;
42018;SDS011;27703;51.980;5.848;2022-09-21T11:06:45;3.35;;;0.17;;
42018;SDS011;27703;51.980;5.848;2022-09-21T11:12:02;2.85;;;0.10;;
42018;SDS011;27703;51.980;5.848;2022-09-21T11:27:43;0.93;;;0.10;;
42018;SDS011;27703;51.980;5.848;2022-09-21T11:30:14;0.93;;;0.05;;
42018;SDS011;27703;51.980;5.848;2022-09-21T11:33:43;1.13;;;0.10;;
42018;SDS011;27703;51.980;5.848;2022-09-21T11:35:59;2.22;;;0.10;;
42018;SDS011;27703;51.980;5.848;2022-09-21T11:47:10;0.25;;;0.00;;
42018;SDS011;27703;51.980;5.848;2022-09-21T11:49:59;2.75;;;0.52;;
42018;SDS011;27703;51.980;5.848;2022-09-21T11:58:36;0.50;;;0.10;;
42018;SDS011;27703;51.980;5.848;2022-09-21T12:04:42;0.63;;;0.00;;
42018;SDS011;27703;51.980;5.848;2022-09-21T12:13:07;0.90;;;0.10;;
42018;SDS011;27703;51.980;5.848;2022-09-21T12:15:53;1.00;;;0.05;;
42018;SDS011;27703;51.980;5.848;2022-09-21T12:21:23;2.05;;;0.10;;
42018;SDS011;27703;51.980;5.848;2022-09-21T12:24:01;0.45;;;0.10;;
42018;SDS011;27703;51.980;5.848;2022-09-21T12:26:41;0.57;;;0.10;;
42018;SDS011;27703;51.980;5.848;2022-09-21T12:29:14;1.40;;;0.10;;
42018;SDS011;27703;51.980;5.848;2022-09-21T12:34:33;2.25;;;0.10;;
42018;SDS011;27703;51.980;5.848;2022-09-21T12:37:12;0.57;;;0.05;;
42018;SDS011;27703;51.980;5.848;2022-09-21T12:39:53;0.63;;;0.00;;
42018;SDS011;27703;51.980;5.848;2022-09-21T12:45:38;0.32;;;0.00;;
42018;SDS011;27703;51.980;5.848;2022-09-21T12:50:52;1.50;;;0.00;;
42018;SDS011;27703;51.980;5.848;2022-09-21T12:53:23;0.30;;;0.00;;
42018;SDS011;27703;51.980;5.848;2022-09-21T12:56:09;0.63;;;0.00;;
42018;SDS011;27703;51.980;5.848;2022-09-21T13:09:13;0.80;;;0.00;;
42018;SDS011;27703;51.980;5.848;2022-09-21T13:14:24;1.80;;;0.10;;
42018;SDS011;27703;51.980;5.848;2022-09-21T13:19:22;3.72;;;0.10;;
42018;SDS011;27703;51.980;5.848;2022-09-21T13:24:43;0.82;;;0.08;;
42018;SDS011;27703;51.980;5.848;2022-09-21T13:27:10;0.68;;;0.10;;
42018;SDS011;27703;51.980;5.848;2022-09-21T13:29:37;0.38;;;0.00;;
42018;SDS011;27703;51.980;5.848;2022-09-21T13:34:37;0.70;;;0.00;;
42018;SDS011;27703;51.980;5.848;2022-09-21T13:39:44;1.37;;;0.00;;
42018;SDS011;27703;51.980;5.848;2022-09-21T13:44:54;0.40;;;0.00;;
42018;SDS011;27703;51.980;5.848;2022-09-21T13:47:36;0.28;;;0.00;;
42018;SDS011;27703;51.980;5.848;2022-09-21T13:52:51;4.63;;;0.00;;
42018;SDS011;27703;51.980;5.848;2022-09-21T13:55:29;1.38;;;0.10;;
42018;SDS011;27703;51.980;5.848;2022-09-21T13:57:59;0.77;;;0.00;;
42018;SDS011;27703;51.980;5.848;2022-09-21T14:00:41;0.20;;;0.00;;
42018;SDS011;27703;51.980;5.848;2022-09-21T14:06:05;1.13;;;0.17;;
42018;SDS011;27703;51.980;5.848;2022-09-21T14:08:46;1.55;;;0.00;;
42018;SDS011;27703;51.980;5.848;2022-09-21T14:11:29;2.17;;;0.00;;
42018;SDS011;27703;51.980;5.848;2022-09-21T14:24:38;0.70;;;0.05;;
42018;SDS011;27703;51.980;5.848;2022-09-21T14:30:21;1.23;;;0.00;;
42018;SDS011;27703;51.980;5.848;2022-09-21T14:33:02;3.22;;;0.22;;
42018;SDS011;27703;51.980;5.848;2022-09-21T14:35:40;0.55;;;0.10;;
42018;SDS011;27703;51.980;5.848;2022-09-21T14:38:28;0.40;;;0.00;;
42018;SDS011;27703;51.980;5.848;2022-09-21T14:41:02;0.60;;;0.00;;
42018;SDS011;27703;51.980;5.848;2022-09-21T14:43:32;0.50;;;0.00;;
42018;SDS011;27703;51.980;5.848;2022-09-21T15:00:23;1.30;;;0.00;;
42018;SDS011;27703;51.980;5.848;2022-09-21T15:05:54;1.15;;;0.03;;
42018;SDS011;27703;51.980;5.848;2022-09-21T15:12:18;0.40;;;0.10;;
42018;SDS011;27703;51.980;5.848;2022-09-21T15:14:55;1.27;;;0.00;;
42018;SDS011;27703;51.980;5.848;2022-09-21T15:19:49;0.68;;;0.00;;
42018;SDS011;27703;51.980;5.848;2022-09-21T15:22:16;0.95;;;0.10;;
42018;SDS011;27703;51.980;5.848;2022-09-21T15:27:13;0.45;;;0.00;;
42018;SDS011;27703;51.980;5.848;2022-09-21T15:29:47;0.98;;;0.00;;
42018;SDS011;27703;51.980;5.848;2022-09-21T15:32:23;1.20;;;0.00;;
42018;SDS011;27703;51.980;5.848;2022-09-21T15:35:03;0.43;;;0.00;;
42018;SDS011;27703;51.980;5.848;2022-09-21T15:37:36;2.08;;;0.00;;
42018;SDS011;27703;51.980;5.848;2022-09-21T15:40:04;2.00;;;0.10;;
42018;SDS011;27703;51.980;5.848;2022-09-21T15:42:40;0.73;;;0.00;;
42018;SDS011;27703;51.980;5.848;2022-09-21T15:45:53;0.70;;;0.03;;
42018;SDS011;27703;51.980;5.848;2022-09-21T15:48:18;0.25;;;0.00;;
42018;SDS011;27703;51.980;5.848;2022-09-21T15:50:47;0.63;;;0.00;;
42018;SDS011;27703;51.980;5.848;2022-09-21T15:53:43;0.68;;;0.00;;
42018;SDS011;27703;51.980;5.848;2022-09-21T15:56:16;0.93;;;0.03;;
42018;SDS011;27703;51.980;5.848;2022-09-21T15:58:44;0.43;;;0.03;;
42018;SDS011;27703;51.980;5.848;2022-09-21T16:01:14;0.77;;;0.00;;
42018;SDS011;27703;51.980;5.848;2022-09-21T16:03:41;1.08;;;0.10;;
42018;SDS011;27703;51.980;5.848;2022-09-21T16:06:17;1.27;;;0.10;;
42018;SDS011;27703;51.980;5.848;2022-09-21T16:08:49;1.10;;;0.00;;
42018;SDS011;27703;51.980;5.848;2022-09-21T16:13:58;1.02;;;0.10;;
42018;SDS011;27703;51.980;5.848;2022-09-21T16:22:10;0.63;;;0.00;;
42018;SDS011;27703;51.980;5.848;2022-09-21T16:24:45;0.20;;;0.00;;
42018;SDS011;27703;51.980;5.848;2022-09-21T16:27:16;0.20;;;0.00;;
42018;SDS011;27703;51.980;5.848;2022-09-21T16:29:44;0.52;;;0.00;;
42018;SDS011;27703;51.980;5.848;2022-09-21T16:34:53;0.57;;;0.10;;
42018;SDS011;27703;51.980;5.848;2022-09-21T16:37:51;0.57;;;0.10;;
42018;SDS011;27703;51.980;5.848;2022-09-21T16:40:22;0.32;;;0.00;;
42018;SDS011;27703;51.980;5.848;2022-09-21T16:42:52;0.50;;;0.00;;
42018;SDS011;27703;51.980;5.848;2022-09-21T16:45:27;0.30;;;0.00;;
42018;SDS011;27703;51.980;5.848;2022-09-21T16:47:55;1.00;;;0.00;;
42018;SDS011;27703;51.980;5.848;2022-09-21T16:50:23;0.10;;;0.00;;
42018;SDS011;27703;51.980;5.848;2022-09-21T16:52:49;0.22;;;0.00;;
42018;SDS011;27703;51.980;5.848;2022-09-21T16:55:16;0.30;;;0.00;;
42018;SDS011;27703;51.980;5.848;2022-09-21T16:57:45;0.38;;;0.00;;
42018;SDS011;27703;51.980;5.848;2022-09-21T17:00:12;0.30;;;0.00;;
42018;SDS011;27703;51.980;5.848;2022-09-21T17:02:46;0.75;;;0.00;;
42018;SDS011;27703;51.980;5.848;2022-09-21T17:05:13;0.47;;;0.08;;
42018;SDS011;27703;51.980;5.848;2022-09-21T17:07:47;0.73;;;0.00;;
42018;SDS011;27703;51.980;5.848;2022-09-21T17:10:18;1.85;;;0.10;;
42018;SDS011;27703;51.980;5.848;2022-09-21T17:12:48;0.57;;;0.10;;
42018;SDS011;27703;51.980;5.848;2022-09-21T17:15:14;1.77;;;0.10;;
42018;SDS011;27703;51.980;5.848;2022-09-21T17:17:40;0.50;;;0.10;;
42018;SDS011;27703;51.980;5.848;2022-09-21T17:20:13;1.08;;;0.20;;
42018;SDS011;27703;51.980;5.848;2022-09-21T17:22:43;0.88;;;0.10;;
42018;SDS011;27703;51.980;5.848;2022-09-21T17:25:09;1.33;;;0.10;;
42018;SDS011;27703;51.980;5.848;2022-09-21T17:27:35;0.95;;;0.20;;
42018;SDS011;27703;51.980;5.848;2022-09-21T17:30:00;1.33;;;0.30;;
42018;SDS011;27703;51.980;5.848;2022-09-21T17:32:28;0.93;;;0.10;;
42018;SDS011;27703;51.980;5.848;2022-09-21T17:34:56;1.33;;;0.10;;
42018;SDS011;27703;51.980;5.848;2022-09-21T17:37:36;1.23;;;0.10;;
42018;SDS011;27703;51.980;5.848;2022-09-21T17:40:02;1.30;;;0.20;;
42018;SDS011;27703;51.980;5.848;2022-09-21T17:42:28;0.98;;;0.20;;
42018;SDS011;27703;51.980;5.848;2022-09-21T17:44:58;1.20;;;0.30;;
42018;SDS011;27703;51.980;5.848;2022-09-21T17:47:37;2.40;;;0.30;;
42018;SDS011;27703;51.980;5.848;2022-09-21T17:50:14;2.83;;;0.40;;
42018;SDS011;27703;51.980;5.848;2022-09-21T17:52:52;1.48;;;0.40;;
42018;SDS011;27703;51.980;5.848;2022-09-21T17:55:38;1.98;;;0.47;;
42018;SDS011;27703;51.980;5.848;2022-09-21T18:04:00;1.88;;;0.60;;
42018;SDS011;27703;51.980;5.848;2022-09-21T18:06:27;1.88;;;0.60;;
42018;SDS011;27703;51.980;5.848;2022-09-21T18:08:53;1.73;;;0.60;;
42018;SDS011;27703;51.980;5.848;2022-09-21T18:16:21;3.40;;;0.80;;
42018;SDS011;27703;51.980;5.848;2022-09-21T18:21:43;3.42;;;1.15;;
42018;SDS011;27703;51.980;5.848;2022-09-21T18:24:13;2.17;;;0.57;;
42018;SDS011;27703;51.980;5.848;2022-09-21T18:26:55;4.03;;;1.95;;
42018;SDS011;27703;51.980;5.848;2022-09-21T18:29:28;4.43;;;2.78;;
42018;SDS011;27703;51.980;5.848;2022-09-21T18:42:53;2.30;;;1.03;;
42018;SDS011;27703;51.980;5.848;2022-09-21T18:50:56;1.70;;;0.60;;
42018;SDS011;27703;51.980;5.848;2022-09-21T18:53:46;1.92;;;0.70;;
42018;SDS011;27703;51.980;5.848;2022-09-21T18:56:16;2.50;;;0.60;;
42018;SDS011;27703;51.980;5.848;2022-09-21T18:58:42;4.43;;;0.88;;
42018;SDS011;27703;51.980;5.848;2022-09-21T19:01:11;2.05;;;0.55;;
42018;SDS011;27703;51.980;5.848;2022-09-21T19:03:38;2.25;;;0.90;;
42018;SDS011;27703;51.980;5.848;2022-09-21T19:17:28;2.15;;;0.40;;
42018;SDS011;27703;51.980;5.848;2022-09-21T19:28:14;2.22;;;0.40;;
42018;SDS011;27703;51.980;5.848;2022-09-21T19:30:47;1.77;;;0.40;;
42018;SDS011;27703;51.980;5.848;2022-09-21T19:33:19;1.80;;;0.40;;
42018;SDS011;27703;51.980;5.848;2022-09-21T19:35:49;1.25;;;0.40;;
42018;SDS011;27703;51.980;5.848;2022-09-21T19:38:16;1.27;;;0.40;;
42018;SDS011;27703;51.980;5.848;2022-09-21T19:40:42;1.88;;;0.30;;
42018;SDS011;27703;51.980;5.848;2022-09-21T19:48:57;2.15;;;0.20;;
42018;SDS011;27703;51.980;5.848;2022-09-21T19:54:28;1.85;;;0.40;;